sensor_id;sensor_type;location;lat;lon;timestamp;P1;durP1;ratioP1;P2;durP2;ratioP2
80776;SDS011;70169;51.262;6.336;2023-12-20T00:01:13;10.07;;;5.50;;
80776;SDS011;70169;51.262;6.336;2023-12-20T00:03:29;9.40;;;4.70;;
80776;SDS011;70169;51.262;6.336;2023-12-20T00:05:44;12.33;;;5.23;;
80776;SDS011;70169;51.262;6.336;2023-12-20T00:07:59;9.83;;;5.33;;
80776;SDS011;70169;51.262;6.336;2023-12-20T00:10:15;8.97;;;4.80;;
80776;SDS011;70169;51.262;6.336;2023-12-20T00:12:30;8.52;;;4.90;;
80776;SDS011;70169;51.262;6.336;2023-12-20T00:14:45;10.90;;;4.93;;
80776;SDS011;70169;51.262;6.336;2023-12-20T00:17:01;9.77;;;5.73;;
80776;SDS011;70169;51.262;6.336;2023-12-20T00:19:16;14.05;;;6.32;;
80776;SDS011;70169;51.262;6.336;2023-12-20T00:21:31;10.97;;;5.23;;
80776;SDS011;70169;51.262;6.336;2023-12-20T00:23:46;8.60;;;4.17;;
80776;SDS011;70169;51.262;6.336;2023-12-20T00:26:02;7.00;;;3.90;;
80776;SDS011;70169;51.262;6.336;2023-12-20T00:28:17;9.05;;;5.28;;
80776;SDS011;70169;51.262;6.336;2023-12-20T00:30:32;10.60;;;6.00;;
80776;SDS011;70169;51.262;6.336;2023-12-20T00:32:48;13.68;;;6.50;;
80776;SDS011;70169;51.262;6.336;2023-12-20T00:35:04;15.60;;;8.27;;
80776;SDS011;70169;51.262;6.336;2023-12-20T00:37:19;18.23;;;8.90;;
80776;SDS011;70169;51.262;6.336;2023-12-20T00:39:35;15.25;;;8.80;;
80776;SDS011;70169;51.262;6.336;2023-12-20T00:41:50;14.13;;;8.17;;
80776;SDS011;70169;51.262;6.336;2023-12-20T00:44:05;16.70;;;8.33;;
80776;SDS011;70169;51.262;6.336;2023-12-20T00:46:20;16.87;;;9.50;;
80776;SDS011;70169;51.262;6.336;2023-12-20T00:48:36;17.70;;;9.87;;
80776;SDS011;70169;51.262;6.336;2023-12-20T00:50:51;19.17;;;8.90;;
80776;SDS011;70169;51.262;6.336;2023-12-20T00:53:06;16.97;;;9.33;;
80776;SDS011;70169;51.262;6.336;2023-12-20T00:55:21;14.83;;;9.10;;
80776;SDS011;70169;51.262;6.336;2023-12-20T00:57:37;15.93;;;9.60;;
80776;SDS011;70169;51.262;6.336;2023-12-20T00:59:52;16.00;;;8.70;;
80776;SDS011;70169;51.262;6.336;2023-12-20T01:02:07;14.97;;;8.17;;
80776;SDS011;70169;51.262;6.336;2023-12-20T01:04:23;15.45;;;8.68;;
80776;SDS011;70169;51.262;6.336;2023-12-20T01:06:39;20.03;;;9.03;;
80776;SDS011;70169;51.262;6.336;2023-12-20T01:08:54;12.50;;;7.70;;
80776;SDS011;70169;51.262;6.336;2023-12-20T01:11:09;13.97;;;7.80;;
80776;SDS011;70169;51.262;6.336;2023-12-20T01:13:25;14.87;;;8.47;;
80776;SDS011;70169;51.262;6.336;2023-12-20T01:15:40;15.17;;;7.40;;
80776;SDS011;70169;51.262;6.336;2023-12-20T01:17:55;16.57;;;7.17;;
80776;SDS011;70169;51.262;6.336;2023-12-20T01:20:11;13.82;;;6.95;;
80776;SDS011;70169;51.262;6.336;2023-12-20T01:22:27;13.63;;;6.37;;
80776;SDS011;70169;51.262;6.336;2023-12-20T01:24:42;14.35;;;5.97;;
80776;SDS011;70169;51.262;6.336;2023-12-20T01:26:57;14.87;;;6.63;;
80776;SDS011;70169;51.262;6.336;2023-12-20T01:29:13;9.10;;;5.20;;
80776;SDS011;70169;51.262;6.336;2023-12-20T01:31:29;14.27;;;6.13;;
80776;SDS011;70169;51.262;6.336;2023-12-20T01:33:44;9.20;;;5.17;;
80776;SDS011;70169;51.262;6.336;2023-12-20T01:35:59;9.73;;;4.60;;
80776;SDS011;70169;51.262;6.336;2023-12-20T01:38:15;17.00;;;5.43;;
80776;SDS011;70169;51.262;6.336;2023-12-20T01:40:33;9.98;;;5.05;;
80776;SDS011;70169;51.262;6.336;2023-12-20T01:42:58;11.13;;;4.65;;
80776;SDS011;70169;51.262;6.336;2023-12-20T01:45:17;11.25;;;4.72;;
80776;SDS011;70169;51.262;6.336;2023-12-20T01:47:32;10.30;;;4.37;;
80776;SDS011;70169;51.262;6.336;2023-12-20T01:49:48;7.93;;;3.80;;
80776;SDS011;70169;51.262;6.336;2023-12-20T01:52:04;12.82;;;3.78;;
80776;SDS011;70169;51.262;6.336;2023-12-20T01:54:20;8.40;;;3.38;;
80776;SDS011;70169;51.262;6.336;2023-12-20T01:56:36;11.25;;;3.45;;
80776;SDS011;70169;51.262;6.336;2023-12-20T01:58:51;9.45;;;3.35;;
80776;SDS011;70169;51.262;6.336;2023-12-20T02:01:07;6.07;;;3.30;;
80776;SDS011;70169;51.262;6.336;2023-12-20T02:03:22;9.40;;;3.10;;
80776;SDS011;70169;51.262;6.336;2023-12-20T02:05:38;7.43;;;2.75;;
80776;SDS011;70169;51.262;6.336;2023-12-20T02:07:54;11.63;;;3.40;;
80776;SDS011;70169;51.262;6.336;2023-12-20T02:10:09;7.47;;;2.90;;
80776;SDS011;70169;51.262;6.336;2023-12-20T02:12:24;13.10;;;3.90;;
80776;SDS011;70169;51.262;6.336;2023-12-20T02:14:40;14.20;;;3.58;;
80776;SDS011;70169;51.262;6.336;2023-12-20T02:16:55;10.83;;;2.97;;
80776;SDS011;70169;51.262;6.336;2023-12-20T02:19:13;9.50;;;3.03;;
80776;SDS011;70169;51.262;6.336;2023-12-20T02:21:33;8.90;;;2.78;;
80776;SDS011;70169;51.262;6.336;2023-12-20T02:23:49;8.50;;;3.05;;
80776;SDS011;70169;51.262;6.336;2023-12-20T02:26:05;12.85;;;3.08;;
80776;SDS011;70169;51.262;6.336;2023-12-20T02:28:21;9.52;;;3.03;;
80776;SDS011;70169;51.262;6.336;2023-12-20T02:30:37;6.75;;;2.70;;
80776;SDS011;70169;51.262;6.336;2023-12-20T02:32:52;7.20;;;2.73;;
80776;SDS011;70169;51.262;6.336;2023-12-20T02:35:08;11.73;;;3.30;;
80776;SDS011;70169;51.262;6.336;2023-12-20T02:37:24;6.17;;;2.47;;
80776;SDS011;70169;51.262;6.336;2023-12-20T02:39:39;12.30;;;3.73;;
80776;SDS011;70169;51.262;6.336;2023-12-20T02:41:54;9.80;;;3.00;;
80776;SDS011;70169;51.262;6.336;2023-12-20T02:44:10;9.80;;;2.97;;
80776;SDS011;70169;51.262;6.336;2023-12-20T02:46:25;7.90;;;2.33;;
80776;SDS011;70169;51.262;6.336;2023-12-20T02:48:40;6.10;;;2.30;;
80776;SDS011;70169;51.262;6.336;2023-12-20T02:50:55;8.30;;;2.50;;
80776;SDS011;70169;51.262;6.336;2023-12-20T02:53:11;9.27;;;2.60;;
80776;SDS011;70169;51.262;6.336;2023-12-20T02:55:26;17.03;;;3.00;;
80776;SDS011;70169;51.262;6.336;2023-12-20T02:57:41;9.30;;;2.70;;
80776;SDS011;70169;51.262;6.336;2023-12-20T02:59:57;12.88;;;2.53;;
80776;SDS011;70169;51.262;6.336;2023-12-20T03:02:12;7.30;;;2.30;;
80776;SDS011;70169;51.262;6.336;2023-12-20T03:04:27;12.27;;;3.47;;
80776;SDS011;70169;51.262;6.336;2023-12-20T03:06:43;9.10;;;2.60;;
80776;SDS011;70169;51.262;6.336;2023-12-20T03:08:58;10.27;;;2.60;;
80776;SDS011;70169;51.262;6.336;2023-12-20T03:11:13;11.80;;;2.70;;
80776;SDS011;70169;51.262;6.336;2023-12-20T03:13:29;6.10;;;2.63;;
80776;SDS011;70169;51.262;6.336;2023-12-20T03:15:44;12.30;;;2.73;;
80776;SDS011;70169;51.262;6.336;2023-12-20T03:17:59;15.67;;;3.00;;
80776;SDS011;70169;51.262;6.336;2023-12-20T03:20:15;8.25;;;2.80;;
80776;SDS011;70169;51.262;6.336;2023-12-20T03:22:30;8.97;;;2.80;;
80776;SDS011;70169;51.262;6.336;2023-12-20T03:24:45;12.73;;;3.30;;
80776;SDS011;70169;51.262;6.336;2023-12-20T03:27:01;10.10;;;2.87;;
80776;SDS011;70169;51.262;6.336;2023-12-20T03:29:16;12.40;;;3.63;;
80776;SDS011;70169;51.262;6.336;2023-12-20T03:31:31;12.33;;;3.33;;
80776;SDS011;70169;51.262;6.336;2023-12-20T03:33:46;8.53;;;2.73;;
80776;SDS011;70169;51.262;6.336;2023-12-20T03:36:02;8.63;;;3.13;;
80776;SDS011;70169;51.262;6.336;2023-12-20T03:38:17;10.00;;;3.10;;
80776;SDS011;70169;51.262;6.336;2023-12-20T03:40:32;10.30;;;2.90;;
80776;SDS011;70169;51.262;6.336;2023-12-20T03:42:48;11.13;;;4.10;;
80776;SDS011;70169;51.262;6.336;2023-12-20T03:45:03;8.43;;;2.53;;
80776;SDS011;70169;51.262;6.336;2023-12-20T03:47:19;11.77;;;3.33;;
80776;SDS011;70169;51.262;6.336;2023-12-20T03:49:34;10.57;;;3.10;;
80776;SDS011;70169;51.262;6.336;2023-12-20T03:51:52;13.98;;;3.70;;
80776;SDS011;70169;51.262;6.336;2023-12-20T03:54:07;13.10;;;3.80;;
80776;SDS011;70169;51.262;6.336;2023-12-20T03:56:22;13.63;;;3.42;;
80776;SDS011;70169;51.262;6.336;2023-12-20T03:58:38;12.70;;;3.60;;
80776;SDS011;70169;51.262;6.336;2023-12-20T04:00:53;14.02;;;4.35;;
80776;SDS011;70169;51.262;6.336;2023-12-20T04:03:08;12.10;;;3.90;;
80776;SDS011;70169;51.262;6.336;2023-12-20T04:05:24;13.70;;;4.10;;
80776;SDS011;70169;51.262;6.336;2023-12-20T04:07:39;11.67;;;4.10;;
80776;SDS011;70169;51.262;6.336;2023-12-20T04:09:54;20.43;;;5.63;;
80776;SDS011;70169;51.262;6.336;2023-12-20T04:12:09;9.13;;;4.70;;
80776;SDS011;70169;51.262;6.336;2023-12-20T04:14:25;10.27;;;3.73;;
80776;SDS011;70169;51.262;6.336;2023-12-20T04:16:40;12.23;;;4.67;;
80776;SDS011;70169;51.262;6.336;2023-12-20T04:18:55;12.03;;;3.50;;
80776;SDS011;70169;51.262;6.336;2023-12-20T04:21:11;12.95;;;4.05;;
80776;SDS011;70169;51.262;6.336;2023-12-20T04:23:26;11.33;;;4.13;;
80776;SDS011;70169;51.262;6.336;2023-12-20T04:25:41;16.60;;;4.70;;
80776;SDS011;70169;51.262;6.336;2023-12-20T04:27:56;7.53;;;3.90;;
80776;SDS011;70169;51.262;6.336;2023-12-20T04:30:12;11.97;;;4.30;;
80776;SDS011;70169;51.262;6.336;2023-12-20T04:32:28;6.93;;;3.22;;
80776;SDS011;70169;51.262;6.336;2023-12-20T04:34:43;12.83;;;3.80;;
80776;SDS011;70169;51.262;6.336;2023-12-20T04:36:58;9.63;;;4.10;;
80776;SDS011;70169;51.262;6.336;2023-12-20T04:39:14;11.70;;;3.70;;
80776;SDS011;70169;51.262;6.336;2023-12-20T04:41:30;9.88;;;4.25;;
80776;SDS011;70169;51.262;6.336;2023-12-20T04:43:45;13.47;;;4.03;;
80776;SDS011;70169;51.262;6.336;2023-12-20T04:46:00;15.00;;;3.97;;
80776;SDS011;70169;51.262;6.336;2023-12-20T04:48:15;8.93;;;4.30;;
80776;SDS011;70169;51.262;6.336;2023-12-20T04:50:31;7.33;;;4.20;;
80776;SDS011;70169;51.262;6.336;2023-12-20T04:52:46;15.00;;;4.63;;
80776;SDS011;70169;51.262;6.336;2023-12-20T04:55:02;14.50;;;4.03;;
80776;SDS011;70169;51.262;6.336;2023-12-20T04:57:17;9.70;;;3.83;;
80776;SDS011;70169;51.262;6.336;2023-12-20T04:59:32;16.20;;;4.60;;
80776;SDS011;70169;51.262;6.336;2023-12-20T05:01:48;10.30;;;3.93;;
80776;SDS011;70169;51.262;6.336;2023-12-20T05:04:03;14.43;;;3.90;;
80776;SDS011;70169;51.262;6.336;2023-12-20T05:06:18;12.88;;;3.50;;
80776;SDS011;70169;51.262;6.336;2023-12-20T05:08:34;15.93;;;4.47;;
80776;SDS011;70169;51.262;6.336;2023-12-20T05:10:49;12.50;;;3.73;;
80776;SDS011;70169;51.262;6.336;2023-12-20T05:13:04;19.90;;;4.28;;
80776;SDS011;70169;51.262;6.336;2023-12-20T05:15:20;14.63;;;4.20;;
80776;SDS011;70169;51.262;6.336;2023-12-20T05:17:35;12.83;;;3.90;;
80776;SDS011;70169;51.262;6.336;2023-12-20T05:19:50;10.90;;;3.85;;
80776;SDS011;70169;51.262;6.336;2023-12-20T05:22:06;14.13;;;4.17;;
80776;SDS011;70169;51.262;6.336;2023-12-20T05:24:21;14.33;;;4.17;;
80776;SDS011;70169;51.262;6.336;2023-12-20T05:26:36;15.87;;;4.23;;
80776;SDS011;70169;51.262;6.336;2023-12-20T05:28:52;12.70;;;4.00;;
80776;SDS011;70169;51.262;6.336;2023-12-20T05:31:07;10.48;;;4.18;;
80776;SDS011;70169;51.262;6.336;2023-12-20T05:33:22;17.95;;;5.40;;
80776;SDS011;70169;51.262;6.336;2023-12-20T05:35:38;18.57;;;5.47;;
80776;SDS011;70169;51.262;6.336;2023-12-20T05:37:53;18.50;;;5.10;;
80776;SDS011;70169;51.262;6.336;2023-12-20T05:40:08;11.40;;;4.63;;
80776;SDS011;70169;51.262;6.336;2023-12-20T05:42:27;13.95;;;4.78;;
80776;SDS011;70169;51.262;6.336;2023-12-20T05:44:42;14.83;;;5.57;;
80776;SDS011;70169;51.262;6.336;2023-12-20T05:46:58;15.77;;;5.47;;
80776;SDS011;70169;51.262;6.336;2023-12-20T05:49:13;10.63;;;4.57;;
80776;SDS011;70169;51.262;6.336;2023-12-20T05:51:28;14.35;;;5.47;;
80776;SDS011;70169;51.262;6.336;2023-12-20T05:53:44;15.20;;;6.40;;
80776;SDS011;70169;51.262;6.336;2023-12-20T05:55:59;16.55;;;5.20;;
80776;SDS011;70169;51.262;6.336;2023-12-20T05:58:14;15.17;;;5.93;;
80776;SDS011;70169;51.262;6.336;2023-12-20T06:00:30;18.00;;;5.97;;
80776;SDS011;70169;51.262;6.336;2023-12-20T06:02:45;9.93;;;4.53;;
80776;SDS011;70169;51.262;6.336;2023-12-20T06:05:00;16.30;;;5.50;;
80776;SDS011;70169;51.262;6.336;2023-12-20T06:07:16;11.75;;;4.72;;
80776;SDS011;70169;51.262;6.336;2023-12-20T06:09:32;16.47;;;4.60;;
80776;SDS011;70169;51.262;6.336;2023-12-20T06:11:47;16.38;;;5.20;;
80776;SDS011;70169;51.262;6.336;2023-12-20T06:14:02;12.88;;;5.13;;
80776;SDS011;70169;51.262;6.336;2023-12-20T06:16:18;20.37;;;5.30;;
80776;SDS011;70169;51.262;6.336;2023-12-20T06:18:33;15.63;;;5.50;;
80776;SDS011;70169;51.262;6.336;2023-12-20T06:20:49;14.97;;;5.47;;
80776;SDS011;70169;51.262;6.336;2023-12-20T06:23:04;13.07;;;4.55;;
80776;SDS011;70169;51.262;6.336;2023-12-20T06:25:20;15.87;;;5.17;;
80776;SDS011;70169;51.262;6.336;2023-12-20T06:27:35;15.50;;;4.85;;
80776;SDS011;70169;51.262;6.336;2023-12-20T06:29:50;10.83;;;4.20;;
80776;SDS011;70169;51.262;6.336;2023-12-20T06:32:06;12.77;;;5.60;;
80776;SDS011;70169;51.262;6.336;2023-12-20T06:34:21;22.48;;;5.28;;
80776;SDS011;70169;51.262;6.336;2023-12-20T06:36:36;16.40;;;5.17;;
80776;SDS011;70169;51.262;6.336;2023-12-20T06:38:52;17.05;;;4.57;;
80776;SDS011;70169;51.262;6.336;2023-12-20T06:41:07;11.88;;;4.93;;
80776;SDS011;70169;51.262;6.336;2023-12-20T06:43:23;18.90;;;5.33;;
80776;SDS011;70169;51.262;6.336;2023-12-20T06:45:38;12.60;;;5.10;;
80776;SDS011;70169;51.262;6.336;2023-12-20T06:47:53;16.88;;;4.53;;
80776;SDS011;70169;51.262;6.336;2023-12-20T06:50:09;14.55;;;5.18;;
80776;SDS011;70169;51.262;6.336;2023-12-20T06:52:25;14.27;;;5.20;;
80776;SDS011;70169;51.262;6.336;2023-12-20T06:54:40;13.03;;;4.20;;
80776;SDS011;70169;51.262;6.336;2023-12-20T06:56:55;11.47;;;4.70;;
80776;SDS011;70169;51.262;6.336;2023-12-20T06:59:10;20.90;;;5.60;;
80776;SDS011;70169;51.262;6.336;2023-12-20T07:01:26;13.73;;;4.30;;
80776;SDS011;70169;51.262;6.336;2023-12-20T07:03:41;14.82;;;4.18;;
80776;SDS011;70169;51.262;6.336;2023-12-20T07:05:57;13.00;;;4.22;;
80776;SDS011;70169;51.262;6.336;2023-12-20T07:08:12;22.45;;;5.78;;
80776;SDS011;70169;51.262;6.336;2023-12-20T07:10:29;18.30;;;7.18;;
80776;SDS011;70169;51.262;6.336;2023-12-20T07:12:44;79.47;;;25.57;;
80776;SDS011;70169;51.262;6.336;2023-12-20T07:15:00;37.95;;;11.65;;
80776;SDS011;70169;51.262;6.336;2023-12-20T07:17:15;80.77;;;27.73;;
80776;SDS011;70169;51.262;6.336;2023-12-20T07:19:30;134.90;;;35.67;;
80776;SDS011;70169;51.262;6.336;2023-12-20T07:21:46;92.47;;;23.60;;
80776;SDS011;70169;51.262;6.336;2023-12-20T07:24:01;61.93;;;25.77;;
80776;SDS011;70169;51.262;6.336;2023-12-20T07:26:16;33.37;;;14.00;;
80776;SDS011;70169;51.262;6.336;2023-12-20T07:28:32;21.02;;;9.30;;
80776;SDS011;70169;51.262;6.336;2023-12-20T07:30:48;16.15;;;6.93;;
80776;SDS011;70169;51.262;6.336;2023-12-20T07:33:03;73.10;;;28.57;;
80776;SDS011;70169;51.262;6.336;2023-12-20T07:35:19;21.30;;;11.48;;
80776;SDS011;70169;51.262;6.336;2023-12-20T07:37:34;11.87;;;6.97;;
80776;SDS011;70169;51.262;6.336;2023-12-20T07:39:49;9.80;;;5.30;;
80776;SDS011;70169;51.262;6.336;2023-12-20T07:42:05;19.33;;;8.07;;
80776;SDS011;70169;51.262;6.336;2023-12-20T07:44:20;14.73;;;5.40;;
80776;SDS011;70169;51.262;6.336;2023-12-20T07:46:36;16.13;;;5.50;;
80776;SDS011;70169;51.262;6.336;2023-12-20T07:48:51;15.87;;;6.17;;
80776;SDS011;70169;51.262;6.336;2023-12-20T07:51:06;15.13;;;7.67;;
80776;SDS011;70169;51.262;6.336;2023-12-20T07:53:23;13.18;;;7.97;;
80776;SDS011;70169;51.262;6.336;2023-12-20T07:55:39;16.53;;;5.37;;
80776;SDS011;70169;51.262;6.336;2023-12-20T07:57:54;16.75;;;4.40;;
80776;SDS011;70169;51.262;6.336;2023-12-20T08:00:09;12.57;;;4.70;;
80776;SDS011;70169;51.262;6.336;2023-12-20T08:02:25;17.23;;;4.43;;
80776;SDS011;70169;51.262;6.336;2023-12-20T08:04:40;16.00;;;3.77;;
80776;SDS011;70169;51.262;6.336;2023-12-20T08:06:56;14.00;;;4.77;;
80776;SDS011;70169;51.262;6.336;2023-12-20T08:09:11;11.13;;;4.67;;
80776;SDS011;70169;51.262;6.336;2023-12-20T08:11:26;10.27;;;4.90;;
80776;SDS011;70169;51.262;6.336;2023-12-20T08:13:41;14.17;;;5.53;;
80776;SDS011;70169;51.262;6.336;2023-12-20T08:15:57;16.60;;;4.97;;
80776;SDS011;70169;51.262;6.336;2023-12-20T08:18:12;14.57;;;5.10;;
80776;SDS011;70169;51.262;6.336;2023-12-20T08:20:27;11.60;;;5.30;;
80776;SDS011;70169;51.262;6.336;2023-12-20T08:22:43;13.67;;;4.50;;
80776;SDS011;70169;51.262;6.336;2023-12-20T08:24:58;13.60;;;4.83;;
80776;SDS011;70169;51.262;6.336;2023-12-20T08:27:13;17.00;;;4.80;;
80776;SDS011;70169;51.262;6.336;2023-12-20T08:29:28;14.23;;;5.20;;
80776;SDS011;70169;51.262;6.336;2023-12-20T08:31:44;16.27;;;6.13;;
80776;SDS011;70169;51.262;6.336;2023-12-20T08:33:59;19.30;;;6.72;;
80776;SDS011;70169;51.262;6.336;2023-12-20T08:36:15;17.63;;;5.53;;
80776;SDS011;70169;51.262;6.336;2023-12-20T08:38:32;16.42;;;6.97;;
80776;SDS011;70169;51.262;6.336;2023-12-20T08:40:48;14.70;;;3.97;;
80776;SDS011;70169;51.262;6.336;2023-12-20T08:43:03;14.25;;;4.95;;
80776;SDS011;70169;51.262;6.336;2023-12-20T08:45:18;13.57;;;3.53;;
80776;SDS011;70169;51.262;6.336;2023-12-20T08:47:34;9.63;;;3.50;;
80776;SDS011;70169;51.262;6.336;2023-12-20T08:49:49;13.63;;;5.50;;
80776;SDS011;70169;51.262;6.336;2023-12-20T08:52:05;13.40;;;7.57;;
80776;SDS011;70169;51.262;6.336;2023-12-20T08:54:20;17.05;;;4.82;;
80776;SDS011;70169;51.262;6.336;2023-12-20T08:56:35;17.60;;;5.23;;
80776;SDS011;70169;51.262;6.336;2023-12-20T08:58:51;10.13;;;5.33;;
80776;SDS011;70169;51.262;6.336;2023-12-20T09:01:06;12.32;;;4.97;;
80776;SDS011;70169;51.262;6.336;2023-12-20T09:03:22;16.30;;;5.40;;
80776;SDS011;70169;51.262;6.336;2023-12-20T09:05:37;20.77;;;7.67;;
80776;SDS011;70169;51.262;6.336;2023-12-20T09:07:53;14.50;;;5.90;;
80776;SDS011;70169;51.262;6.336;2023-12-20T09:10:08;10.47;;;3.23;;
80776;SDS011;70169;51.262;6.336;2023-12-20T09:12:23;71.28;;;41.67;;
80776;SDS011;70169;51.262;6.336;2023-12-20T09:14:39;15.27;;;4.53;;
80776;SDS011;70169;51.262;6.336;2023-12-20T09:16:54;12.33;;;3.87;;
80776;SDS011;70169;51.262;6.336;2023-12-20T09:19:11;16.40;;;5.00;;
80776;SDS011;70169;51.262;6.336;2023-12-20T09:21:26;14.93;;;4.60;;
80776;SDS011;70169;51.262;6.336;2023-12-20T09:23:41;15.97;;;3.50;;
80776;SDS011;70169;51.262;6.336;2023-12-20T09:25:56;12.13;;;3.10;;
80776;SDS011;70169;51.262;6.336;2023-12-20T09:28:12;14.40;;;4.30;;
80776;SDS011;70169;51.262;6.336;2023-12-20T09:30:27;7.03;;;3.33;;
80776;SDS011;70169;51.262;6.336;2023-12-20T09:32:42;9.57;;;4.03;;
80776;SDS011;70169;51.262;6.336;2023-12-20T09:34:58;21.93;;;4.90;;
80776;SDS011;70169;51.262;6.336;2023-12-20T09:37:13;10.60;;;3.67;;
80776;SDS011;70169;51.262;6.336;2023-12-20T09:39:29;10.48;;;4.10;;
80776;SDS011;70169;51.262;6.336;2023-12-20T09:41:44;12.53;;;3.37;;
80776;SDS011;70169;51.262;6.336;2023-12-20T09:46:17;11.80;;;4.10;;
80776;SDS011;70169;51.262;6.336;2023-12-20T09:48:41;12.52;;;3.75;;
80776;SDS011;70169;51.262;6.336;2023-12-20T09:50:59;11.40;;;3.33;;
80776;SDS011;70169;51.262;6.336;2023-12-20T09:53:15;8.33;;;2.50;;
80776;SDS011;70169;51.262;6.336;2023-12-20T09:55:32;10.88;;;4.32;;
80776;SDS011;70169;51.262;6.336;2023-12-20T09:57:48;8.00;;;3.10;;
80776;SDS011;70169;51.262;6.336;2023-12-20T10:00:04;13.45;;;4.90;;
80776;SDS011;70169;51.262;6.336;2023-12-20T10:02:21;11.13;;;3.67;;
80776;SDS011;70169;51.262;6.336;2023-12-20T10:04:48;15.20;;;4.05;;
80776;SDS011;70169;51.262;6.336;2023-12-20T10:07:03;12.70;;;3.88;;
80776;SDS011;70169;51.262;6.336;2023-12-20T10:09:19;12.93;;;4.25;;
80776;SDS011;70169;51.262;6.336;2023-12-20T10:11:34;15.73;;;4.73;;
80776;SDS011;70169;51.262;6.336;2023-12-20T10:13:52;11.90;;;4.90;;
80776;SDS011;70169;51.262;6.336;2023-12-20T10:16:07;7.63;;;4.33;;
80776;SDS011;70169;51.262;6.336;2023-12-20T10:18:22;9.63;;;3.97;;
80776;SDS011;70169;51.262;6.336;2023-12-20T10:20:39;13.23;;;4.65;;
80776;SDS011;70169;51.262;6.336;2023-12-20T10:22:56;17.35;;;4.28;;
80776;SDS011;70169;51.262;6.336;2023-12-20T10:25:12;10.43;;;3.67;;
80776;SDS011;70169;51.262;6.336;2023-12-20T10:27:27;11.20;;;4.17;;
80776;SDS011;70169;51.262;6.336;2023-12-20T10:29:43;14.33;;;5.53;;
80776;SDS011;70169;51.262;6.336;2023-12-20T10:31:58;12.97;;;3.40;;
80776;SDS011;70169;51.262;6.336;2023-12-20T10:34:13;13.07;;;3.00;;
80776;SDS011;70169;51.262;6.336;2023-12-20T10:36:30;11.80;;;3.45;;
80776;SDS011;70169;51.262;6.336;2023-12-20T10:38:47;10.85;;;3.75;;
80776;SDS011;70169;51.262;6.336;2023-12-20T10:41:06;14.02;;;4.07;;
80776;SDS011;70169;51.262;6.336;2023-12-20T10:43:23;11.30;;;3.33;;
80776;SDS011;70169;51.262;6.336;2023-12-20T10:45:41;10.88;;;3.78;;
80776;SDS011;70169;51.262;6.336;2023-12-20T10:47:58;8.13;;;3.30;;
80776;SDS011;70169;51.262;6.336;2023-12-20T10:50:17;11.68;;;3.60;;
80776;SDS011;70169;51.262;6.336;2023-12-20T10:54:49;12.90;;;3.35;;
80776;SDS011;70169;51.262;6.336;2023-12-20T10:57:05;10.73;;;3.47;;
80776;SDS011;70169;51.262;6.336;2023-12-20T10:59:21;9.98;;;2.33;;
80776;SDS011;70169;51.262;6.336;2023-12-20T11:01:38;10.85;;;3.22;;
80776;SDS011;70169;51.262;6.336;2023-12-20T11:03:56;8.75;;;3.05;;
80776;SDS011;70169;51.262;6.336;2023-12-20T11:06:15;10.05;;;2.78;;
80776;SDS011;70169;51.262;6.336;2023-12-20T11:08:45;12.05;;;3.35;;
80776;SDS011;70169;51.262;6.336;2023-12-20T11:16:27;21.55;;;3.42;;
80776;SDS011;70169;51.262;6.336;2023-12-20T11:18:44;9.43;;;2.97;;
80776;SDS011;70169;51.262;6.336;2023-12-20T11:21:00;10.65;;;3.63;;
80776;SDS011;70169;51.262;6.336;2023-12-20T11:23:18;12.32;;;3.42;;
80776;SDS011;70169;51.262;6.336;2023-12-20T11:25:49;16.17;;;8.60;;
80776;SDS011;70169;51.262;6.336;2023-12-20T11:28:08;20.02;;;9.80;;
80776;SDS011;70169;51.262;6.336;2023-12-20T11:30:25;27.85;;;13.23;;
80776;SDS011;70169;51.262;6.336;2023-12-20T11:32:40;49.87;;;20.73;;
80776;SDS011;70169;51.262;6.336;2023-12-20T11:34:56;35.20;;;14.70;;
80776;SDS011;70169;51.262;6.336;2023-12-20T11:37:15;43.00;;;14.63;;
80776;SDS011;70169;51.262;6.336;2023-12-20T11:39:31;26.73;;;13.73;;
80776;SDS011;70169;51.262;6.336;2023-12-20T11:41:46;66.55;;;29.88;;
80776;SDS011;70169;51.262;6.336;2023-12-20T11:44:04;24.17;;;10.50;;
80776;SDS011;70169;51.262;6.336;2023-12-20T11:46:19;29.55;;;13.35;;
80776;SDS011;70169;51.262;6.336;2023-12-20T11:48:36;24.98;;;13.38;;
80776;SDS011;70169;51.262;6.336;2023-12-20T11:50:53;63.40;;;19.65;;
80776;SDS011;70169;51.262;6.336;2023-12-20T11:53:08;77.97;;;23.23;;
80776;SDS011;70169;51.262;6.336;2023-12-20T11:55:25;178.32;;;49.42;;
80776;SDS011;70169;51.262;6.336;2023-12-20T11:57:41;134.63;;;35.77;;
80776;SDS011;70169;51.262;6.336;2023-12-20T11:59:58;218.65;;;57.42;;
80776;SDS011;70169;51.262;6.336;2023-12-20T12:02:13;65.30;;;16.20;;
80776;SDS011;70169;51.262;6.336;2023-12-20T12:04:28;93.05;;;26.65;;
80776;SDS011;70169;51.262;6.336;2023-12-20T12:06:44;31.03;;;13.70;;
80776;SDS011;70169;51.262;6.336;2023-12-20T12:09:00;22.00;;;10.50;;
80776;SDS011;70169;51.262;6.336;2023-12-20T12:11:15;14.07;;;6.27;;
80776;SDS011;70169;51.262;6.336;2023-12-20T12:13:31;12.90;;;4.32;;
80776;SDS011;70169;51.262;6.336;2023-12-20T12:15:47;14.73;;;4.47;;
80776;SDS011;70169;51.262;6.336;2023-12-20T12:18:03;11.45;;;4.40;;
80776;SDS011;70169;51.262;6.336;2023-12-20T12:20:20;7.00;;;4.05;;
80776;SDS011;70169;51.262;6.336;2023-12-20T12:22:35;10.77;;;4.13;;
80776;SDS011;70169;51.262;6.336;2023-12-20T12:24:51;10.75;;;3.78;;
80776;SDS011;70169;51.262;6.336;2023-12-20T12:27:07;6.93;;;3.60;;
80776;SDS011;70169;51.262;6.336;2023-12-20T12:29:22;9.98;;;4.05;;
80776;SDS011;70169;51.262;6.336;2023-12-20T12:31:39;12.48;;;5.15;;
80776;SDS011;70169;51.262;6.336;2023-12-20T12:33:55;17.23;;;4.82;;
80776;SDS011;70169;51.262;6.336;2023-12-20T12:36:11;11.68;;;3.72;;
80776;SDS011;70169;51.262;6.336;2023-12-20T12:38:27;13.70;;;5.10;;
80776;SDS011;70169;51.262;6.336;2023-12-20T12:40:43;12.57;;;4.73;;
80776;SDS011;70169;51.262;6.336;2023-12-20T12:42:59;12.57;;;4.60;;
80776;SDS011;70169;51.262;6.336;2023-12-20T12:45:14;10.00;;;4.32;;
80776;SDS011;70169;51.262;6.336;2023-12-20T12:47:30;13.50;;;4.50;;
80776;SDS011;70169;51.262;6.336;2023-12-20T12:49:46;16.50;;;6.05;;
80776;SDS011;70169;51.262;6.336;2023-12-20T12:52:01;11.57;;;6.90;;
80776;SDS011;70169;51.262;6.336;2023-12-20T12:54:17;13.98;;;5.75;;
80776;SDS011;70169;51.262;6.336;2023-12-20T12:56:33;13.77;;;6.25;;
80776;SDS011;70169;51.262;6.336;2023-12-20T12:58:49;14.82;;;5.70;;
80776;SDS011;70169;51.262;6.336;2023-12-20T13:01:04;9.57;;;5.57;;
80776;SDS011;70169;51.262;6.336;2023-12-20T13:03:19;14.10;;;6.00;;
80776;SDS011;70169;51.262;6.336;2023-12-20T13:05:35;15.93;;;6.00;;
80776;SDS011;70169;51.262;6.336;2023-12-20T13:07:50;13.20;;;5.03;;
80776;SDS011;70169;51.262;6.336;2023-12-20T13:10:05;10.45;;;5.28;;
80776;SDS011;70169;51.262;6.336;2023-12-20T13:12:21;11.75;;;4.93;;
80776;SDS011;70169;51.262;6.336;2023-12-20T13:14:36;15.20;;;5.43;;
80776;SDS011;70169;51.262;6.336;2023-12-20T13:16:52;11.80;;;5.28;;
80776;SDS011;70169;51.262;6.336;2023-12-20T13:19:07;12.77;;;5.03;;
80776;SDS011;70169;51.262;6.336;2023-12-20T13:21:24;14.32;;;6.15;;
80776;SDS011;70169;51.262;6.336;2023-12-20T13:23:40;16.83;;;5.03;;
80776;SDS011;70169;51.262;6.336;2023-12-20T13:25:55;14.77;;;5.30;;
80776;SDS011;70169;51.262;6.336;2023-12-20T13:28:10;11.70;;;4.90;;
80776;SDS011;70169;51.262;6.336;2023-12-20T13:30:26;15.60;;;5.40;;
80776;SDS011;70169;51.262;6.336;2023-12-20T13:32:41;12.27;;;4.87;;
80776;SDS011;70169;51.262;6.336;2023-12-20T13:34:56;12.93;;;5.23;;
80776;SDS011;70169;51.262;6.336;2023-12-20T13:37:12;9.30;;;4.50;;